METAR UND TAF INFORMATION
LDPL 161130Z 00000KT 9999 -RA FEW030 BKN050 21/19 Q1018 TEMPO RA

 FLUGHAFENKARTE

 RUNWAY INFORMATION
Runway 09 Runway length 9678 ft Runway width 148 ft
Runway elevation 169 ft Runway displaced threshold 0 ft Runway heading 88
Runway 27 Runway length 9678 ft Runway width 148 ft
Runway elevation 274 ft Runway displaced threshold 0 ft Runway heading 268

 AIRPORT FREQUENCIES
Type APP Name APP Frequency 118.4 MHZ
Type TWR Name TWR Frequency 120 MHZ

 AIRPORT NEAR NAVIGATION AIDS
Type NDB Name Cres Frequency 433 KHZ
Type NDB Name Kavran Frequency 265 KHZ
Type NDB Name Pula Frequency 352 KHZ
Type VOR-DME Name Pula Frequency 111250 KHZ